LGRX/GPA METAR and TAF weather

Enter ICAO airport designator
Station Type Date Time Source
LGRX METAR 2022/12/05 15:50 UTC NOAA

LGRX 051550Z 07004KT 9999 FEW030 BKN070 16/11 Q1022


Station Type Date Time Source
LGRX Decoded METAR 2022/12/05 15:50 UTC NOAA

Araxos Airport , Greece (LGRX) 38-09N 021-25E 12M
Dec 05, 2022 - 10:50 AM EST / 2022.12.05 1550 UTC
Wind: from the ENE (070 degrees) at 5 MPH (4 KT):0
Visibility: greater than 7 mile(s):0
Sky conditions: mostly cloudy
Temperature: 60 F (16 C)
Dew Point: 51 F (11 C)
Relative Humidity: 72%
Pressure (altimeter): 30.18 in. Hg (1022 hPa)
ob: LGRX 051550Z 07004KT 9999 FEW030 BKN070 16/11 Q1022
cycle: 16

Station Type Date Time Source
LGRX TAF 2020/03/18 09:39 UTC NOAA

TAF LGRX 180800Z 1809/1821 33006KT 9999 FEW030
BECMG 1816/1818 07010KT

Example: see airport list